createdAt,value
2024-03-04T00:00:04.626Z,6.56
2024-03-04T00:02:33.186Z,6.54
2024-03-04T00:05:01.738Z,6.56
2024-03-04T00:07:30.727Z,6.49
2024-03-04T00:09:58.908Z,6.43
2024-03-04T00:12:27.491Z,6.45
2024-03-04T00:14:56.256Z,6.44
2024-03-04T00:17:25.520Z,6.44
2024-03-04T00:19:54.169Z,6.42
2024-03-04T00:22:22.511Z,6.45
2024-03-04T00:24:51.029Z,6.45
2024-03-04T00:27:19.608Z,6.44
2024-03-04T00:29:47.991Z,6.48
2024-03-04T00:32:17.497Z,6.50
2024-03-04T00:34:45.875Z,6.52
2024-03-04T00:37:14.092Z,6.59
2024-03-04T00:39:47.364Z,6.61
2024-03-04T00:42:16.238Z,6.64
2024-03-04T00:44:45.121Z,6.68
2024-03-04T00:47:13.711Z,6.71
2024-03-04T00:49:42.310Z,6.64
2024-03-04T00:52:13.760Z,6.57
2024-03-04T00:54:42.010Z,6.55
2024-03-04T00:57:11.209Z,6.56
2024-03-04T00:59:39.698Z,6.61
2024-03-04T01:02:08.808Z,6.65
2024-03-04T01:04:37.592Z,6.68
2024-03-04T01:07:06.602Z,6.69
2024-03-04T01:09:35.156Z,6.65
2024-03-04T01:12:03.939Z,6.57
2024-03-04T01:14:32.334Z,6.49
2024-03-04T01:17:01.623Z,6.44
2024-03-04T01:19:30.330Z,6.41
2024-03-04T01:21:59.362Z,6.37
2024-03-04T01:24:29.342Z,6.35
2024-03-04T01:26:58.007Z,6.16
2024-03-04T01:29:29.859Z,6.02
2024-03-04T01:31:58.239Z,5.85
2024-03-04T01:34:26.836Z,5.70
2024-03-04T01:36:55.665Z,5.59
2024-03-04T01:39:24.917Z,5.47
2024-03-04T01:41:53.094Z,5.41
2024-03-04T01:44:21.890Z,5.30
2024-03-04T01:46:50.359Z,5.20
2024-03-04T01:49:22.193Z,5.13
2024-03-04T01:51:50.926Z,5.02
2024-03-04T01:54:19.282Z,4.94
2024-03-04T01:56:48.280Z,4.90
2024-03-04T01:59:18.816Z,4.85
2024-03-04T02:01:48.214Z,4.78
2024-03-04T02:04:17.115Z,4.77
2024-03-04T02:06:46.299Z,4.76
2024-03-04T02:09:17.982Z,4.74
2024-03-04T02:11:46.542Z,4.66
2024-03-04T02:14:15.029Z,4.63
2024-03-04T02:16:43.516Z,4.61
2024-03-04T02:19:15.868Z,4.60
2024-03-04T02:21:53.265Z,4.59
2024-03-04T02:24:22.015Z,4.62
2024-03-04T02:26:54.120Z,4.63
2024-03-04T02:29:22.510Z,4.65
2024-03-04T02:31:52.008Z,4.65
2024-03-04T02:34:20.411Z,4.64
2024-03-04T02:36:48.982Z,4.60
2024-03-04T02:39:19.538Z,4.55
2024-03-04T02:41:48.188Z,4.52
2024-03-04T02:44:16.801Z,4.49
2024-03-04T02:46:45.370Z,4.40
2024-03-04T02:49:14.366Z,4.32
2024-03-04T02:51:42.721Z,4.29
2024-03-04T02:54:14.377Z,4.27
2024-03-04T02:56:43.278Z,4.26
2024-03-04T02:59:12.103Z,4.29
2024-03-04T03:01:41.876Z,4.29
2024-03-04T03:04:10.307Z,4.28
2024-03-04T03:06:38.721Z,4.28
2024-03-04T03:09:07.832Z,4.27
2024-03-04T03:11:36.616Z,4.27
2024-03-04T03:14:05.197Z,4.26
2024-03-04T03:16:33.686Z,4.27
2024-03-04T03:19:02.497Z,4.31
2024-03-04T03:21:31.155Z,4.33
2024-03-04T03:23:59.638Z,4.34
2024-03-04T03:26:28.111Z,4.33
2024-03-04T03:28:58.155Z,4.30
2024-03-04T03:31:28.240Z,4.26
2024-03-04T03:33:56.756Z,4.23
2024-03-04T03:36:25.619Z,4.21
2024-03-04T03:38:54.200Z,4.23
2024-03-04T03:41:22.992Z,4.22
2024-03-04T03:43:51.379Z,4.21
2024-03-04T03:46:19.776Z,4.19
2024-03-04T03:48:48.742Z,4.17
2024-03-04T03:51:17.232Z,4.13
2024-03-04T03:53:45.617Z,4.12
2024-03-04T03:56:14.087Z,4.17
2024-03-04T03:58:42.648Z,4.22
2024-03-04T04:01:11.927Z,4.26
2024-03-04T04:03:40.749Z,4.29
2024-03-04T04:06:09.131Z,4.30
2024-03-04T04:08:37.264Z,4.32
2024-03-04T04:11:05.484Z,4.34
2024-03-04T04:13:33.794Z,4.39
2024-03-04T04:16:02.409Z,4.44
2024-03-04T04:18:31.230Z,4.48
2024-03-04T04:20:59.831Z,4.51
2024-03-04T04:23:28.302Z,4.51
2024-03-04T04:25:56.678Z,4.54
2024-03-04T04:28:26.721Z,4.57
2024-03-04T04:30:55.280Z,4.61
2024-03-04T04:33:24.316Z,4.70
2024-03-04T04:35:52.772Z,4.75
2024-03-04T04:38:21.351Z,4.80
2024-03-04T04:40:51.464Z,4.83
2024-03-04T04:43:22.205Z,4.85
2024-03-04T04:45:50.728Z,4.84
2024-03-04T04:48:19.794Z,4.83
2024-03-04T04:50:48.354Z,4.83
2024-03-04T04:53:17.045Z,4.79
2024-03-04T04:55:45.425Z,4.81
2024-03-04T04:58:15.560Z,4.81
2024-03-04T05:00:43.818Z,4.81
2024-03-04T05:03:16.205Z,4.81
2024-03-04T05:05:50.983Z,4.82
2024-03-04T05:08:19.716Z,4.84
2024-03-04T05:10:48.100Z,4.86
2024-03-04T05:13:16.990Z,4.91
2024-03-04T05:15:45.553Z,4.96
2024-03-04T05:18:14.737Z,4.97
2024-03-04T05:20:53.918Z,4.98
2024-03-04T05:23:24.824Z,5.01
2024-03-04T05:25:53.461Z,5.05
2024-03-04T05:28:21.938Z,5.10
2024-03-04T05:30:50.367Z,5.17
2024-03-04T05:33:18.574Z,5.27
2024-03-04T05:35:47.510Z,5.36
2024-03-04T05:38:15.802Z,5.47
2024-03-04T05:40:45.150Z,5.59
2024-03-04T05:43:14.079Z,5.68
2024-03-04T05:45:42.522Z,5.79
2024-03-04T05:48:11.088Z,5.93
2024-03-04T05:50:39.655Z,6.07
2024-03-04T05:53:07.928Z,6.23
2024-03-04T05:55:36.800Z,6.36
2024-03-04T05:58:05.449Z,6.47
2024-03-04T06:00:35.085Z,6.59
2024-03-04T06:03:03.901Z,6.74
2024-03-04T06:05:32.383Z,6.88
2024-03-04T06:08:02.607Z,7.03
2024-03-04T06:10:31.229Z,7.23
2024-03-04T06:13:00.131Z,7.45
2024-03-04T06:15:28.869Z,7.63
2024-03-04T06:17:57.277Z,7.81
2024-03-04T06:20:25.744Z,8.00
2024-03-04T06:22:54.218Z,8.17
2024-03-04T06:25:22.933Z,8.30
2024-03-04T06:27:52.004Z,8.43
2024-03-04T06:30:21.213Z,8.43
2024-03-04T06:32:49.497Z,8.50
2024-03-04T06:35:18.763Z,8.61
2024-03-04T06:37:47.390Z,8.71
2024-03-04T06:40:16.399Z,8.82
2024-03-04T06:42:44.925Z,8.83
2024-03-04T06:45:13.523Z,8.92
2024-03-04T06:47:41.750Z,9.11
2024-03-04T06:50:10.466Z,9.36
2024-03-04T06:52:38.999Z,9.52
2024-03-04T06:55:07.890Z,9.67
2024-03-04T06:57:36.334Z,9.75
2024-03-04T07:00:06.473Z,9.81
2024-03-04T07:02:35.265Z,9.84
2024-03-04T07:05:04.025Z,10.01
2024-03-04T07:07:32.325Z,10.25
2024-03-04T07:10:04.016Z,10.43
2024-03-04T07:12:32.714Z,10.59
2024-03-04T07:15:01.362Z,10.64
2024-03-04T07:17:29.550Z,10.52
2024-03-04T07:19:57.901Z,10.45
2024-03-04T07:22:26.507Z,10.46
2024-03-04T07:24:55.875Z,10.44
2024-03-04T07:27:24.773Z,10.52
2024-03-04T07:29:59.122Z,10.40
2024-03-04T07:32:31.405Z,10.43
2024-03-04T07:34:59.933Z,10.45
2024-03-04T07:37:28.973Z,10.47
2024-03-04T07:39:57.223Z,10.48
2024-03-04T07:42:27.017Z,10.22
2024-03-04T07:44:55.406Z,10.02
2024-03-04T07:47:23.953Z,9.96
2024-03-04T07:49:53.404Z,9.89
2024-03-04T07:52:21.882Z,10.01
2024-03-04T07:54:50.333Z,10.08
2024-03-04T07:57:23.561Z,10.22
2024-03-04T07:59:52.994Z,10.32
2024-03-04T08:02:21.628Z,10.34
2024-03-04T08:04:49.996Z,10.26
2024-03-04T08:07:18.553Z,10.30
2024-03-04T08:09:46.980Z,10.28
2024-03-04T08:12:16.465Z,10.22
2024-03-04T08:14:45.067Z,10.25
2024-03-04T08:17:13.430Z,10.28
2024-03-04T08:19:42.245Z,10.23
2024-03-04T08:22:10.808Z,10.12
2024-03-04T08:24:45.487Z,9.95
2024-03-04T08:27:14.108Z,9.84
2024-03-04T08:29:42.800Z,9.80
2024-03-04T08:32:11.179Z,9.80
2024-03-04T08:34:40.118Z,9.92
2024-03-04T08:37:08.883Z,10.02
2024-03-04T08:39:37.240Z,10.13
2024-03-04T08:42:06.921Z,10.22
2024-03-04T08:44:35.242Z,10.13
2024-03-04T08:47:03.795Z,10.24
2024-03-04T08:49:32.137Z,10.25
2024-03-04T08:52:02.629Z,10.19
2024-03-04T08:54:32.892Z,10.27
2024-03-04T08:57:01.413Z,10.35
2024-03-04T08:59:29.811Z,10.41
2024-03-04T09:01:58.103Z,10.43
2024-03-04T09:04:26.673Z,10.35
2024-03-04T09:06:56.570Z,10.26
2024-03-04T09:09:24.806Z,10.14
2024-03-04T09:11:54.048Z,10.19
2024-03-04T09:14:22.340Z,10.37
2024-03-04T09:16:51.484Z,10.45
2024-03-04T09:19:19.725Z,10.49
2024-03-04T09:21:48.990Z,10.74
2024-03-04T09:24:17.581Z,10.73
2024-03-04T09:26:48.931Z,10.73
2024-03-04T09:29:17.815Z,10.80
2024-03-04T09:31:46.201Z,10.80
2024-03-04T09:34:14.906Z,10.86
2024-03-04T09:36:43.268Z,11.01
2024-03-04T09:39:14.741Z,11.05
2024-03-04T09:41:43.808Z,11.00
2024-03-04T09:44:12.696Z,11.10
2024-03-04T09:46:42.430Z,11.20
2024-03-04T09:49:12.822Z,11.22
2024-03-04T09:51:42.227Z,11.32
2024-03-04T09:54:15.916Z,11.10
2024-03-04T09:56:44.677Z,11.08
2024-03-04T09:59:13.530Z,11.14
2024-03-04T10:01:42.343Z,11.31
2024-03-04T10:04:11.036Z,11.57
2024-03-04T10:06:40.425Z,11.80
2024-03-04T10:09:14.083Z,12.00
2024-03-04T10:11:44.203Z,12.33
2024-03-04T10:14:12.704Z,12.60
2024-03-04T10:16:41.620Z,12.69
2024-03-04T10:19:09.805Z,12.40
2024-03-04T10:21:38.348Z,12.23
2024-03-04T10:24:11.411Z,12.13
2024-03-04T10:26:42.102Z,12.41
2024-03-04T10:29:11.075Z,12.48
2024-03-04T10:31:49.746Z,12.58
2024-03-04T10:34:18.484Z,12.80
2024-03-04T10:36:49.029Z,12.80
2024-03-04T10:39:17.738Z,12.54
2024-03-04T10:41:48.922Z,12.65
2024-03-04T10:44:29.907Z,12.73
2024-03-04T10:47:03.939Z,12.89
2024-03-04T10:49:33.378Z,13.07
2024-03-04T10:54:35.603Z,13.14
2024-03-04T10:57:08.728Z,12.98
2024-03-04T10:59:38.683Z,12.74
2024-03-04T11:02:21.635Z,12.49
2024-03-04T11:04:56.422Z,12.72
2024-03-04T11:07:29.626Z,13.23
2024-03-04T11:10:02.109Z,13.79
2024-03-04T11:12:34.249Z,14.33
2024-03-04T11:15:10.190Z,14.69
2024-03-04T11:17:47.450Z,14.95
2024-03-04T11:20:20.212Z,15.46
2024-03-04T11:22:49.054Z,15.75
2024-03-04T11:25:18.881Z,16.03
2024-03-04T11:27:48.633Z,16.60
2024-03-04T11:30:19.023Z,16.49
2024-03-04T11:32:47.512Z,16.37
2024-03-04T11:35:28.457Z,16.61
2024-03-04T11:38:14.509Z,16.76
2024-03-04T11:40:46.957Z,16.83
2024-03-04T11:43:44.997Z,16.81
2024-03-04T11:46:15.527Z,17.18
2024-03-04T11:48:44.079Z,17.10
2024-03-04T11:51:12.487Z,16.73
2024-03-04T11:53:45.044Z,16.64
2024-03-04T11:56:15.216Z,16.60
2024-03-04T11:58:43.689Z,16.59
2024-03-04T12:01:19.086Z,15.97
2024-03-04T12:03:54.917Z,15.50
2024-03-04T12:06:23.802Z,15.36
2024-03-04T12:09:09.331Z,15.93
2024-03-04T12:11:41.147Z,16.39
2024-03-04T12:14:09.647Z,15.93
2024-03-04T12:16:40.322Z,16.38
2024-03-04T12:19:08.974Z,16.48
2024-03-04T12:21:38.972Z,16.65
2024-03-04T12:24:10.655Z,16.61
2024-03-04T12:26:39.017Z,16.72
2024-03-04T12:29:08.558Z,16.37
2024-03-04T12:31:39.175Z,16.38
2024-03-04T12:34:08.861Z,16.17
2024-03-04T12:36:45.139Z,15.76
2024-03-04T12:39:13.803Z,15.78
2024-03-04T12:41:42.201Z,16.11
2024-03-04T12:44:10.556Z,16.05
2024-03-04T12:46:40.045Z,15.74
2024-03-04T12:49:09.044Z,15.68
2024-03-04T12:51:38.074Z,15.46
2024-03-04T12:54:06.422Z,15.53
2024-03-04T12:56:34.706Z,15.63
2024-03-04T12:59:03.221Z,15.71
2024-03-04T13:01:32.114Z,15.71
2024-03-04T13:04:05.194Z,15.76
2024-03-04T13:06:33.676Z,15.89
2024-03-04T13:09:02.382Z,15.98
2024-03-04T13:11:30.950Z,15.94
2024-03-04T13:13:59.504Z,15.69
2024-03-04T13:16:28.460Z,15.69
2024-03-04T13:18:56.767Z,15.61
2024-03-04T13:21:25.276Z,15.36
2024-03-04T13:23:53.747Z,15.62
2024-03-04T13:26:22.342Z,15.47
2024-03-04T13:28:50.837Z,15.67
2024-03-04T13:31:19.295Z,15.67
2024-03-04T13:33:48.374Z,15.61
2024-03-04T13:36:16.750Z,15.67
2024-03-04T13:38:45.247Z,15.64
2024-03-04T13:41:13.362Z,15.69
2024-03-04T13:43:41.726Z,15.47
2024-03-04T13:46:10.632Z,14.84
2024-03-04T13:48:39.172Z,14.73
2024-03-04T13:51:07.558Z,14.72
2024-03-04T13:53:38.185Z,14.90
2024-03-04T13:56:08.536Z,14.72
2024-03-04T13:58:36.802Z,14.41
2024-03-04T14:01:05.217Z,14.55
2024-03-04T14:03:36.280Z,14.30
2024-03-04T14:06:06.336Z,14.03
2024-03-04T14:08:34.694Z,13.97
2024-03-04T14:11:05.564Z,13.93
2024-03-04T14:13:34.219Z,13.70
2024-03-04T14:16:02.520Z,13.61
2024-03-04T14:18:31.693Z,13.31
2024-03-04T14:21:00.295Z,13.08
2024-03-04T14:23:32.976Z,13.04
2024-03-04T14:26:04.921Z,12.89
2024-03-04T14:28:33.649Z,12.68
2024-03-04T14:31:01.885Z,12.75
2024-03-04T14:33:30.445Z,12.66
2024-03-04T14:35:58.860Z,12.54
2024-03-04T14:38:27.426Z,12.31
2024-03-04T14:40:58.695Z,12.03
2024-03-04T14:43:27.600Z,11.87
2024-03-04T14:45:55.945Z,11.87
2024-03-04T14:48:24.337Z,11.65
2024-03-04T14:50:52.899Z,11.41
2024-03-04T14:53:21.490Z,11.24
2024-03-04T14:55:49.960Z,11.27
2024-03-04T14:58:18.570Z,11.22
2024-03-04T15:00:46.999Z,11.13
2024-03-04T15:03:15.311Z,11.20
2024-03-04T15:05:44.516Z,11.17
2024-03-04T15:08:12.895Z,11.12
2024-03-04T15:10:41.589Z,10.97
2024-03-04T15:13:09.992Z,10.73
2024-03-04T15:15:38.312Z,10.61
2024-03-04T15:18:15.490Z,10.35
2024-03-04T15:20:54.608Z,10.06
2024-03-04T15:23:23.334Z,9.75
2024-03-04T15:25:51.895Z,9.56
2024-03-04T15:28:20.331Z,9.40
2024-03-04T15:30:48.796Z,9.24
2024-03-04T15:33:18.588Z,9.08
2024-03-04T15:35:48.244Z,8.87
2024-03-04T15:38:18.020Z,8.74
2024-03-04T15:40:46.426Z,8.64
2024-03-04T15:43:17.347Z,8.43
2024-03-04T15:45:46.446Z,8.22
2024-03-04T15:48:14.905Z,8.05
2024-03-04T15:50:43.308Z,7.97
2024-03-04T15:53:11.688Z,7.86
2024-03-04T15:55:40.322Z,7.74
2024-03-04T15:58:10.903Z,7.58
2024-03-04T16:00:40.373Z,7.38
2024-03-04T16:03:08.755Z,7.29
2024-03-04T16:05:37.246Z,7.17
2024-03-04T16:08:06.029Z,7.07
2024-03-04T16:10:34.466Z,6.97
2024-03-04T16:13:03.145Z,6.84
2024-03-04T16:15:40.969Z,6.75
2024-03-04T16:18:17.068Z,6.66
2024-03-04T16:20:45.642Z,6.61
2024-03-04T16:23:14.346Z,6.58
2024-03-04T16:25:42.808Z,6.54
2024-03-04T16:28:11.570Z,6.48
2024-03-04T16:30:40.113Z,6.42
2024-03-04T16:33:08.415Z,6.36
2024-03-04T16:35:37.046Z,6.31
2024-03-04T16:38:05.630Z,6.28
2024-03-04T16:40:34.653Z,6.22
2024-03-04T16:43:05.994Z,6.17
2024-03-04T16:45:34.553Z,6.11
2024-03-04T16:48:03.809Z,6.06
2024-03-04T16:50:32.158Z,6.02
2024-03-04T16:53:00.709Z,6.02
2024-03-04T16:55:31.734Z,6.01
2024-03-04T16:58:04.659Z,5.99
2024-03-04T17:00:33.541Z,5.96
2024-03-04T17:03:05.593Z,5.92
2024-03-04T17:05:34.884Z,5.90
2024-03-04T17:08:07.072Z,5.91
2024-03-04T17:10:35.314Z,5.90
2024-03-04T17:13:04.570Z,5.88
2024-03-04T17:15:33.421Z,5.84
2024-03-04T17:18:03.462Z,5.81
2024-03-04T17:20:33.074Z,5.81
2024-03-04T17:23:01.884Z,5.83
2024-03-04T17:25:30.350Z,5.82
2024-03-04T17:27:59.105Z,5.80
2024-03-04T17:30:27.485Z,5.75
2024-03-04T17:32:56.170Z,5.72
2024-03-04T17:35:25.065Z,5.67
2024-03-04T17:37:53.576Z,5.66
2024-03-04T17:40:22.274Z,5.67
2024-03-04T17:42:50.720Z,5.67
2024-03-04T17:45:19.195Z,5.67
2024-03-04T17:47:47.780Z,5.66
2024-03-04T17:50:16.566Z,5.69
2024-03-04T17:52:44.962Z,5.77
2024-03-04T17:55:14.084Z,5.88
2024-03-04T17:57:43.755Z,6.00
2024-03-04T18:00:12.628Z,6.12
2024-03-04T18:02:41.121Z,6.20
2024-03-04T18:05:09.950Z,6.28
2024-03-04T18:07:40.066Z,6.38
2024-03-04T18:10:10.199Z,6.51
2024-03-04T18:12:38.935Z,6.63
2024-03-04T18:15:08.246Z,6.72
2024-03-04T18:17:36.973Z,6.79
2024-03-04T18:20:07.848Z,6.86
2024-03-04T18:22:36.489Z,6.93
2024-03-04T18:25:06.937Z,7.00
2024-03-04T18:27:35.455Z,7.09
2024-03-04T18:30:04.657Z,7.15
2024-03-04T18:32:33.775Z,7.19
2024-03-04T18:35:02.265Z,7.22
2024-03-04T18:37:30.718Z,7.24
2024-03-04T18:39:59.197Z,7.26
2024-03-04T18:42:27.701Z,7.30
2024-03-04T18:44:56.072Z,7.36
2024-03-04T18:47:25.587Z,7.39
2024-03-04T18:49:54.328Z,7.38
2024-03-04T18:52:23.647Z,7.37
2024-03-04T18:54:52.697Z,7.36
2024-03-04T18:57:21.223Z,7.39
2024-03-04T18:59:49.706Z,7.39
2024-03-04T19:02:18.436Z,7.40
2024-03-04T19:04:47.013Z,7.42
2024-03-04T19:07:15.894Z,7.43
2024-03-04T19:09:44.459Z,7.44
2024-03-04T19:12:12.856Z,7.46
2024-03-04T19:14:42.679Z,7.53
2024-03-04T19:17:11.432Z,7.59
2024-03-04T19:19:39.838Z,7.66
2024-03-04T19:22:08.850Z,7.69
2024-03-04T19:24:39.561Z,7.68
2024-03-04T19:27:08.010Z,7.68
2024-03-04T19:29:36.513Z,7.70
2024-03-04T19:32:05.305Z,7.76
2024-03-04T19:34:34.461Z,7.79
2024-03-04T19:37:03.568Z,7.80
2024-03-04T19:39:32.173Z,7.80
2024-03-04T19:42:03.269Z,7.82
2024-03-04T19:44:32.309Z,7.84
2024-03-04T19:47:01.500Z,7.88
2024-03-04T19:49:29.989Z,7.92
2024-03-04T19:51:58.464Z,7.90
2024-03-04T19:54:26.879Z,7.86
2024-03-04T19:56:56.155Z,7.88
2024-03-04T19:59:24.635Z,7.92
2024-03-04T20:01:53.234Z,7.93
2024-03-04T20:04:21.859Z,7.90
2024-03-04T20:06:50.504Z,7.86
2024-03-04T20:09:18.952Z,7.86
2024-03-04T20:11:47.378Z,7.91
2024-03-04T20:14:15.762Z,7.94
2024-03-04T20:16:46.424Z,7.94
2024-03-04T20:19:14.865Z,7.91
2024-03-04T20:21:43.302Z,7.92
2024-03-04T20:24:11.480Z,7.93
2024-03-04T20:26:39.877Z,7.97
2024-03-04T20:29:08.460Z,7.96
2024-03-04T20:31:37.801Z,7.94
2024-03-04T20:34:07.148Z,7.92
2024-03-04T20:36:35.517Z,7.90
2024-03-04T20:39:04.120Z,7.93
2024-03-04T20:41:32.387Z,7.95
2024-03-04T20:44:03.133Z,7.96
2024-03-04T20:46:31.629Z,7.92
2024-03-04T20:49:00.197Z,7.89
2024-03-04T20:51:31.121Z,7.90
2024-03-04T20:53:59.699Z,7.89
2024-03-04T20:56:28.080Z,7.85
2024-03-04T20:58:56.392Z,7.81
2024-03-04T21:01:25.104Z,7.81
2024-03-04T21:03:53.752Z,7.84
2024-03-04T21:06:22.213Z,7.85
2024-03-04T21:08:50.593Z,7.85
2024-03-04T21:11:19.543Z,7.84
2024-03-04T21:13:48.249Z,7.83
2024-03-04T21:16:16.705Z,7.82
2024-03-04T21:18:45.447Z,7.82
2024-03-04T21:21:13.842Z,7.78
2024-03-04T21:23:42.403Z,7.77
2024-03-04T21:26:10.762Z,7.79
2024-03-04T21:28:41.047Z,7.81
2024-03-04T21:31:11.024Z,7.79
2024-03-04T21:33:39.602Z,7.76
2024-03-04T21:36:08.221Z,7.75
2024-03-04T21:38:36.581Z,7.78
2024-03-04T21:41:05.181Z,7.78
2024-03-04T21:43:33.566Z,7.78
2024-03-04T21:46:04.473Z,7.78
2024-03-04T21:48:37.658Z,7.82
2024-03-04T21:51:06.974Z,7.84
2024-03-04T21:53:35.346Z,7.80
2024-03-04T21:56:08.133Z,7.79
2024-03-04T21:58:36.696Z,7.79
2024-03-04T22:01:05.368Z,7.80
2024-03-04T22:03:34.299Z,7.80
2024-03-04T22:06:03.548Z,7.78
2024-03-04T22:08:34.067Z,7.75
2024-03-04T22:13:30.605Z,7.76
2024-03-04T22:15:58.938Z,7.77
2024-03-04T22:18:27.330Z,7.74
2024-03-04T22:20:55.700Z,7.72
2024-03-04T22:23:24.047Z,7.75
2024-03-04T22:25:52.654Z,7.77
2024-03-04T22:28:21.165Z,7.78
2024-03-04T22:30:52.816Z,7.79
2024-03-04T22:33:21.283Z,7.84
2024-03-04T22:35:49.764Z,7.88
2024-03-04T22:38:21.221Z,7.89
2024-03-04T22:40:51.284Z,7.89
2024-03-04T22:43:20.494Z,7.89
2024-03-04T22:45:48.910Z,7.92
2024-03-04T22:48:17.293Z,7.95
2024-03-04T22:50:45.668Z,7.95
2024-03-04T22:53:14.558Z,7.94
2024-03-04T22:55:43.305Z,7.96
2024-03-04T22:58:11.867Z,8.00
2024-03-04T23:00:40.221Z,8.01
2024-03-04T23:03:12.187Z,8.01
2024-03-04T23:05:41.367Z,7.99
2024-03-04T23:08:09.977Z,7.98
2024-03-04T23:10:38.795Z,7.99
2024-03-04T23:13:08.034Z,8.00
2024-03-04T23:15:40.110Z,7.99
2024-03-04T23:18:11.251Z,7.97
2024-03-04T23:20:39.726Z,7.97
2024-03-04T23:23:08.423Z,7.97
2024-03-04T23:25:36.823Z,7.99
2024-03-04T23:28:06.411Z,7.98
2024-03-04T23:30:36.420Z,7.97
2024-03-04T23:33:06.667Z,7.96
2024-03-04T23:35:35.115Z,8.01
2024-03-04T23:38:04.205Z,8.05
2024-03-04T23:40:32.958Z,8.04
2024-03-04T23:43:01.385Z,8.01
2024-03-04T23:45:29.586Z,7.99
2024-03-04T23:47:58.168Z,7.98
2024-03-04T23:50:27.031Z,8.04
2024-03-04T23:52:55.267Z,8.07
2024-03-04T23:55:23.827Z,8.07
2024-03-04T23:57:52.907Z,8.05
